sensor_id;sensor_type;location;lat;lon;timestamp;temperature;humidity
71184;DHT22;58887;51.980;4.464;2023-04-15T00:00:12;11.06;61.40
71184;DHT22;58887;51.980;4.464;2023-04-15T00:02:37;11.04;61.44
71184;DHT22;58887;51.980;4.464;2023-04-15T00:05:04;11.10;60.98
71184;DHT22;58887;51.980;4.464;2023-04-15T00:07:30;11.11;60.68
71184;DHT22;58887;51.980;4.464;2023-04-15T00:09:56;11.08;60.69
71184;DHT22;58887;51.980;4.464;2023-04-15T00:12:26;11.06;60.63
71184;DHT22;58887;51.980;4.464;2023-04-15T00:14:52;11.08;60.19
71184;DHT22;58887;51.980;4.464;2023-04-15T00:17:17;11.04;59.85
71184;DHT22;58887;51.980;4.464;2023-04-15T00:19:43;11.04;60.28
71184;DHT22;58887;51.980;4.464;2023-04-15T00:22:10;11.00;59.83
71184;DHT22;58887;51.980;4.464;2023-04-15T00:24:36;11.03;60.41
71184;DHT22;58887;51.980;4.464;2023-04-15T00:27:02;10.93;60.27
71184;DHT22;58887;51.980;4.464;2023-04-15T00:29:29;10.93;60.06
71184;DHT22;58887;51.980;4.464;2023-04-15T00:31:55;10.89;59.92
71184;DHT22;58887;51.980;4.464;2023-04-15T00:34:21;10.87;60.15
71184;DHT22;58887;51.980;4.464;2023-04-15T00:36:49;10.91;60.44
71184;DHT22;58887;51.980;4.464;2023-04-15T00:39:14;10.91;60.18
71184;DHT22;58887;51.980;4.464;2023-04-15T00:41:41;10.93;60.44
71184;DHT22;58887;51.980;4.464;2023-04-15T00:44:07;10.79;60.42
71184;DHT22;58887;51.980;4.464;2023-04-15T00:46:38;10.77;60.87
71184;DHT22;58887;51.980;4.464;2023-04-15T00:49:05;10.83;60.63
71184;DHT22;58887;51.980;4.464;2023-04-15T00:51:32;10.79;60.79
71184;DHT22;58887;51.980;4.464;2023-04-15T00:53:58;10.79;60.95
71184;DHT22;58887;51.980;4.464;2023-04-15T00:56:25;10.70;60.55
71184;DHT22;58887;51.980;4.464;2023-04-15T00:59:06;10.73;60.49
71184;DHT22;58887;51.980;4.464;2023-04-15T01:01:34;10.74;60.48
71184;DHT22;58887;51.980;4.464;2023-04-15T01:04:00;10.74;60.41
71184;DHT22;58887;51.980;4.464;2023-04-15T01:06:26;10.69;60.57
71184;DHT22;58887;51.980;4.464;2023-04-15T01:08:56;10.62;61.19
71184;DHT22;58887;51.980;4.464;2023-04-15T01:11:23;10.53;61.58
71184;DHT22;58887;51.980;4.464;2023-04-15T01:13:54;10.43;61.44
71184;DHT22;58887;51.980;4.464;2023-04-15T01:16:22;10.43;61.37
71184;DHT22;58887;51.980;4.464;2023-04-15T01:18:51;10.48;61.19
71184;DHT22;58887;51.980;4.464;2023-04-15T01:21:17;10.48;61.12
71184;DHT22;58887;51.980;4.464;2023-04-15T01:23:46;10.36;61.51
71184;DHT22;58887;51.980;4.464;2023-04-15T01:26:12;10.42;61.48
71184;DHT22;58887;51.980;4.464;2023-04-15T01:28:38;10.36;61.56
71184;DHT22;58887;51.980;4.464;2023-04-15T01:31:08;10.36;61.51
71184;DHT22;58887;51.980;4.464;2023-04-15T01:33:36;10.35;61.21
71184;DHT22;58887;51.980;4.464;2023-04-15T01:36:03;10.26;61.44
71184;DHT22;58887;51.980;4.464;2023-04-15T01:38:29;10.21;61.79
71184;DHT22;58887;51.980;4.464;2023-04-15T01:40:55;10.19;62.08
71184;DHT22;58887;51.980;4.464;2023-04-15T01:43:21;10.16;62.19
71184;DHT22;58887;51.980;4.464;2023-04-15T01:45:47;10.15;62.33
71184;DHT22;58887;51.980;4.464;2023-04-15T01:48:12;10.06;62.74
71184;DHT22;58887;51.980;4.464;2023-04-15T01:50:38;10.01;63.09
71184;DHT22;58887;51.980;4.464;2023-04-15T01:53:05;10.08;62.61
71184;DHT22;58887;51.980;4.464;2023-04-15T01:55:31;10.08;62.55
71184;DHT22;58887;51.980;4.464;2023-04-15T01:57:57;10.08;62.73
71184;DHT22;58887;51.980;4.464;2023-04-15T02:00:22;10.02;63.36
71184;DHT22;58887;51.980;4.464;2023-04-15T02:02:48;10.01;63.25
71184;DHT22;58887;51.980;4.464;2023-04-15T02:05:14;9.99;63.52
71184;DHT22;58887;51.980;4.464;2023-04-15T02:07:41;9.95;63.89
71184;DHT22;58887;51.980;4.464;2023-04-15T02:10:08;9.95;63.70
71184;DHT22;58887;51.980;4.464;2023-04-15T02:12:33;9.85;64.20
71184;DHT22;58887;51.980;4.464;2023-04-15T02:14:59;9.88;64.06
71184;DHT22;58887;51.980;4.464;2023-04-15T02:17:24;9.85;64.43
71184;DHT22;58887;51.980;4.464;2023-04-15T02:19:50;9.90;64.43
71184;DHT22;58887;51.980;4.464;2023-04-15T02:22:15;9.88;64.39
71184;DHT22;58887;51.980;4.464;2023-04-15T02:24:43;9.82;64.74
71184;DHT22;58887;51.980;4.464;2023-04-15T02:27:10;9.85;64.74
71184;DHT22;58887;51.980;4.464;2023-04-15T02:29:39;9.90;64.59
71184;DHT22;58887;51.980;4.464;2023-04-15T02:32:05;9.90;64.79
71184;DHT22;58887;51.980;4.464;2023-04-15T02:34:32;9.90;65.11
71184;DHT22;58887;51.980;4.464;2023-04-15T02:36:58;9.85;65.18
71184;DHT22;58887;51.980;4.464;2023-04-15T02:39:23;9.88;65.37
71184;DHT22;58887;51.980;4.464;2023-04-15T02:41:49;9.84;65.39
71184;DHT22;58887;51.980;4.464;2023-04-15T02:44:17;9.85;65.48
71184;DHT22;58887;51.980;4.464;2023-04-15T02:46:47;9.91;65.29
71184;DHT22;58887;51.980;4.464;2023-04-15T02:49:17;9.94;65.15
71184;DHT22;58887;51.980;4.464;2023-04-15T02:51:43;9.87;65.22
71184;DHT22;58887;51.980;4.464;2023-04-15T02:54:11;9.92;65.09
71184;DHT22;58887;51.980;4.464;2023-04-15T02:56:37;9.88;65.49
71184;DHT22;58887;51.980;4.464;2023-04-15T02:59:03;9.91;65.15
71184;DHT22;58887;51.980;4.464;2023-04-15T03:01:29;9.91;65.28
71184;DHT22;58887;51.980;4.464;2023-04-15T03:03:54;9.90;65.36
71184;DHT22;58887;51.980;4.464;2023-04-15T03:06:19;9.94;65.16
71184;DHT22;58887;51.980;4.464;2023-04-15T03:08:45;9.98;65.06
71184;DHT22;58887;51.980;4.464;2023-04-15T03:11:11;9.91;65.33
71184;DHT22;58887;51.980;4.464;2023-04-15T03:13:38;9.85;65.44
71184;DHT22;58887;51.980;4.464;2023-04-15T03:16:06;9.81;65.88
71184;DHT22;58887;51.980;4.464;2023-04-15T03:18:31;9.81;65.70
71184;DHT22;58887;51.980;4.464;2023-04-15T03:21:00;9.70;66.28
71184;DHT22;58887;51.980;4.464;2023-04-15T03:23:26;9.60;66.51
71184;DHT22;58887;51.980;4.464;2023-04-15T03:25:51;9.55;66.88
71184;DHT22;58887;51.980;4.464;2023-04-15T03:28:20;9.44;67.11
71184;DHT22;58887;51.980;4.464;2023-04-15T03:30:45;9.32;67.62
71184;DHT22;58887;51.980;4.464;2023-04-15T03:33:11;9.20;67.65
71184;DHT22;58887;51.980;4.464;2023-04-15T03:35:37;9.13;67.89
71184;DHT22;58887;51.980;4.464;2023-04-15T03:38:02;8.96;68.35
71184;DHT22;58887;51.980;4.464;2023-04-15T03:40:28;8.91;68.26
71184;DHT22;58887;51.980;4.464;2023-04-15T03:42:53;8.84;68.62
71184;DHT22;58887;51.980;4.464;2023-04-15T03:45:19;8.76;68.92
71184;DHT22;58887;51.980;4.464;2023-04-15T03:47:46;8.69;69.32
71184;DHT22;58887;51.980;4.464;2023-04-15T03:50:11;8.62;69.54
71184;DHT22;58887;51.980;4.464;2023-04-15T03:52:37;8.61;69.31
71184;DHT22;58887;51.980;4.464;2023-04-15T03:55:03;8.61;69.43
71184;DHT22;58887;51.980;4.464;2023-04-15T03:57:28;8.57;69.51
71184;DHT22;58887;51.980;4.464;2023-04-15T03:59:54;8.58;69.52
71184;DHT22;58887;51.980;4.464;2023-04-15T04:02:20;8.62;69.49
71184;DHT22;58887;51.980;4.464;2023-04-15T04:04:47;8.64;69.51
71184;DHT22;58887;51.980;4.464;2023-04-15T04:07:17;8.55;69.66
71184;DHT22;58887;51.980;4.464;2023-04-15T04:09:42;8.51;69.87
71184;DHT22;58887;51.980;4.464;2023-04-15T04:12:09;8.50;69.87
71184;DHT22;58887;51.980;4.464;2023-04-15T04:14:35;8.44;70.19
71184;DHT22;58887;51.980;4.464;2023-04-15T04:17:01;8.41;70.34
71184;DHT22;58887;51.980;4.464;2023-04-15T04:19:34;8.38;70.46
71184;DHT22;58887;51.980;4.464;2023-04-15T04:22:04;8.44;70.26
71184;DHT22;58887;51.980;4.464;2023-04-15T04:24:35;8.27;70.74
71184;DHT22;58887;51.980;4.464;2023-04-15T04:27:00;8.29;70.94
71184;DHT22;58887;51.980;4.464;2023-04-15T04:29:27;8.29;70.97
71184;DHT22;58887;51.980;4.464;2023-04-15T04:31:52;8.23;71.12
71184;DHT22;58887;51.980;4.464;2023-04-15T04:34:18;8.23;71.17
71184;DHT22;58887;51.980;4.464;2023-04-15T04:36:43;8.22;71.32
71184;DHT22;58887;51.980;4.464;2023-04-15T04:39:09;8.20;71.43
71184;DHT22;58887;51.980;4.464;2023-04-15T04:41:34;8.16;71.77
71184;DHT22;58887;51.980;4.464;2023-04-15T04:44:00;8.12;71.93
71184;DHT22;58887;51.980;4.464;2023-04-15T04:46:26;8.17;71.96
71184;DHT22;58887;51.980;4.464;2023-04-15T04:48:51;8.22;71.90
71184;DHT22;58887;51.980;4.464;2023-04-15T04:51:17;8.17;72.12
71184;DHT22;58887;51.980;4.464;2023-04-15T04:53:43;8.22;71.99
71184;DHT22;58887;51.980;4.464;2023-04-15T04:56:09;8.30;71.73
71184;DHT22;58887;51.980;4.464;2023-04-15T04:58:35;8.30;71.59
71184;DHT22;58887;51.980;4.464;2023-04-15T05:01:00;8.30;71.74
71184;DHT22;58887;51.980;4.464;2023-04-15T05:03:27;8.29;71.72
71184;DHT22;58887;51.980;4.464;2023-04-15T05:05:53;8.29;71.88
71184;DHT22;58887;51.980;4.464;2023-04-15T05:08:21;8.30;71.85
71184;DHT22;58887;51.980;4.464;2023-04-15T05:10:46;8.24;72.06
71184;DHT22;58887;51.980;4.464;2023-04-15T05:13:12;8.29;71.87
71184;DHT22;58887;51.980;4.464;2023-04-15T05:15:38;8.29;71.94
71184;DHT22;58887;51.980;4.464;2023-04-15T05:18:06;8.33;72.05
71184;DHT22;58887;51.980;4.464;2023-04-15T05:20:32;8.34;71.88
71184;DHT22;58887;51.980;4.464;2023-04-15T05:22:57;8.38;71.77
71184;DHT22;58887;51.980;4.464;2023-04-15T05:25:23;8.32;72.14
71184;DHT22;58887;51.980;4.464;2023-04-15T05:27:48;8.32;72.31
71184;DHT22;58887;51.980;4.464;2023-04-15T05:30:16;8.34;72.33
71184;DHT22;58887;51.980;4.464;2023-04-15T05:32:41;8.29;72.53
71184;DHT22;58887;51.980;4.464;2023-04-15T05:35:07;8.41;72.54
71184;DHT22;58887;51.980;4.464;2023-04-15T05:37:32;8.44;72.24
71184;DHT22;58887;51.980;4.464;2023-04-15T05:39:58;8.47;72.36
71184;DHT22;58887;51.980;4.464;2023-04-15T05:42:23;8.45;72.54
71184;DHT22;58887;51.980;4.464;2023-04-15T05:44:51;8.50;72.48
71184;DHT22;58887;51.980;4.464;2023-04-15T05:47:16;8.51;72.47
71184;DHT22;58887;51.980;4.464;2023-04-15T05:49:42;8.55;72.49
71184;DHT22;58887;51.980;4.464;2023-04-15T05:52:07;8.58;72.48
71184;DHT22;58887;51.980;4.464;2023-04-15T05:54:33;8.67;72.36
71184;DHT22;58887;51.980;4.464;2023-04-15T05:56:58;8.68;72.43
71184;DHT22;58887;51.980;4.464;2023-04-15T05:59:24;8.78;72.17
71184;DHT22;58887;51.980;4.464;2023-04-15T06:01:57;8.91;71.77
71184;DHT22;58887;51.980;4.464;2023-04-15T06:04:22;8.96;71.66
71184;DHT22;58887;51.980;4.464;2023-04-15T06:06:48;9.01;71.49
71184;DHT22;58887;51.980;4.464;2023-04-15T06:09:13;8.98;71.82
71184;DHT22;58887;51.980;4.464;2023-04-15T06:11:39;8.98;71.87
71184;DHT22;58887;51.980;4.464;2023-04-15T06:14:06;8.98;72.10
71184;DHT22;58887;51.980;4.464;2023-04-15T06:16:34;9.08;71.96
71184;DHT22;58887;51.980;4.464;2023-04-15T06:19:01;9.15;71.82
71184;DHT22;58887;51.980;4.464;2023-04-15T06:21:33;9.18;72.03
71184;DHT22;58887;51.980;4.464;2023-04-15T06:23:59;9.24;71.93
71184;DHT22;58887;51.980;4.464;2023-04-15T06:26:28;9.27;71.97
71184;DHT22;58887;51.980;4.464;2023-04-15T06:28:55;9.27;72.29
71184;DHT22;58887;51.980;4.464;2023-04-15T06:31:21;9.42;71.83
71184;DHT22;58887;51.980;4.464;2023-04-15T06:33:47;9.39;71.85
71184;DHT22;58887;51.980;4.464;2023-04-15T06:36:14;9.43;72.02
71184;DHT22;58887;51.980;4.464;2023-04-15T06:38:42;9.47;72.05
71184;DHT22;58887;51.980;4.464;2023-04-15T06:41:08;9.55;71.63
71184;DHT22;58887;51.980;4.464;2023-04-15T06:43:35;9.64;71.55
71184;DHT22;58887;51.980;4.464;2023-04-15T06:46:01;9.70;71.23
71184;DHT22;58887;51.980;4.464;2023-04-15T06:48:27;9.81;71.06
71184;DHT22;58887;51.980;4.464;2023-04-15T06:50:52;9.88;70.93
71184;DHT22;58887;51.980;4.464;2023-04-15T06:53:18;9.99;70.97
71184;DHT22;58887;51.980;4.464;2023-04-15T06:55:43;10.13;70.40
71184;DHT22;58887;51.980;4.464;2023-04-15T06:58:09;10.22;70.27
71184;DHT22;58887;51.980;4.464;2023-04-15T07:00:35;10.33;69.94
71184;DHT22;58887;51.980;4.464;2023-04-15T07:03:03;10.45;69.89
71184;DHT22;58887;51.980;4.464;2023-04-15T07:05:29;10.57;70.07
71184;DHT22;58887;51.980;4.464;2023-04-15T07:07:55;10.74;69.66
71184;DHT22;58887;51.980;4.464;2023-04-15T07:10:21;10.66;69.44
71184;DHT22;58887;51.980;4.464;2023-04-15T07:12:47;10.84;69.33
71184;DHT22;58887;51.980;4.464;2023-04-15T07:15:13;10.90;69.07
71184;DHT22;58887;51.980;4.464;2023-04-15T07:17:40;10.91;68.73
71184;DHT22;58887;51.980;4.464;2023-04-15T07:20:06;11.15;68.50
71184;DHT22;58887;51.980;4.464;2023-04-15T07:22:32;11.34;67.92
71184;DHT22;58887;51.980;4.464;2023-04-15T07:24:58;11.54;67.46
71184;DHT22;58887;51.980;4.464;2023-04-15T07:27:23;11.66;67.31
71184;DHT22;58887;51.980;4.464;2023-04-15T07:29:49;11.69;66.53
71184;DHT22;58887;51.980;4.464;2023-04-15T07:32:16;11.80;66.65
71184;DHT22;58887;51.980;4.464;2023-04-15T07:34:42;11.86;66.36
71184;DHT22;58887;51.980;4.464;2023-04-15T07:37:08;12.06;65.77
71184;DHT22;58887;51.980;4.464;2023-04-15T07:39:34;12.20;65.70
71184;DHT22;58887;51.980;4.464;2023-04-15T07:41:59;12.26;65.88
71184;DHT22;58887;51.980;4.464;2023-04-15T07:44:26;12.40;65.28
71184;DHT22;58887;51.980;4.464;2023-04-15T07:46:54;12.44;65.65
71184;DHT22;58887;51.980;4.464;2023-04-15T07:49:19;12.51;64.99
71184;DHT22;58887;51.980;4.464;2023-04-15T07:51:45;12.62;64.34
71184;DHT22;58887;51.980;4.464;2023-04-15T07:54:11;12.67;64.83
71184;DHT22;58887;51.980;4.464;2023-04-15T07:56:36;12.69;65.46
71184;DHT22;58887;51.980;4.464;2023-04-15T07:59:02;12.88;64.32
71184;DHT22;58887;51.980;4.464;2023-04-15T08:01:29;13.03;64.47
71184;DHT22;58887;51.980;4.464;2023-04-15T08:03:55;13.15;64.10
71184;DHT22;58887;51.980;4.464;2023-04-15T08:06:21;13.20;63.79
71184;DHT22;58887;51.980;4.464;2023-04-15T08:08:47;13.43;63.95
71184;DHT22;58887;51.980;4.464;2023-04-15T08:11:13;13.46;63.53
71184;DHT22;58887;51.980;4.464;2023-04-15T08:13:39;13.53;63.43
71184;DHT22;58887;51.980;4.464;2023-04-15T08:18:39;13.89;63.29
71184;DHT22;58887;51.980;4.464;2023-04-15T08:21:05;14.12;62.84
71184;DHT22;58887;51.980;4.464;2023-04-15T08:23:33;14.21;62.15
71184;DHT22;58887;51.980;4.464;2023-04-15T08:25:59;14.16;61.66
71184;DHT22;58887;51.980;4.464;2023-04-15T08:28:25;14.46;60.85
71184;DHT22;58887;51.980;4.464;2023-04-15T08:30:57;14.84;60.16
71184;DHT22;58887;51.980;4.464;2023-04-15T08:33:23;14.98;58.97
71184;DHT22;58887;51.980;4.464;2023-04-15T08:35:50;15.31;59.05
71184;DHT22;58887;51.980;4.464;2023-04-15T08:38:16;15.54;57.25
71184;DHT22;58887;51.980;4.464;2023-04-15T08:40:46;15.79;57.52
71184;DHT22;58887;51.980;4.464;2023-04-15T08:43:18;16.10;56.64
71184;DHT22;58887;51.980;4.464;2023-04-15T08:45:45;16.10;56.40
71184;DHT22;58887;51.980;4.464;2023-04-15T08:48:14;16.34;54.47
71184;DHT22;58887;51.980;4.464;2023-04-15T08:50:41;16.58;54.75
71184;DHT22;58887;51.980;4.464;2023-04-15T08:53:10;16.47;54.39
71184;DHT22;58887;51.980;4.464;2023-04-15T08:55:42;16.91;53.52
71184;DHT22;58887;51.980;4.464;2023-04-15T08:58:09;16.98;52.95
71184;DHT22;58887;51.980;4.464;2023-04-15T09:00:36;16.68;52.23
71184;DHT22;58887;51.980;4.464;2023-04-15T09:03:07;16.83;52.63
71184;DHT22;58887;51.980;4.464;2023-04-15T09:05:35;17.18;50.93
71184;DHT22;58887;51.980;4.464;2023-04-15T09:08:03;17.22;51.68
71184;DHT22;58887;51.980;4.464;2023-04-15T09:10:29;17.66;50.30
71184;DHT22;58887;51.980;4.464;2023-04-15T09:12:56;18.01;49.18
71184;DHT22;58887;51.980;4.464;2023-04-15T09:15:24;18.18;49.70
71184;DHT22;58887;51.980;4.464;2023-04-15T09:17:52;18.18;47.91
71184;DHT22;58887;51.980;4.464;2023-04-15T09:20:17;18.32;47.66
71184;DHT22;58887;51.980;4.464;2023-04-15T09:23:21;18.73;46.69
71184;DHT22;58887;51.980;4.464;2023-04-15T09:25:49;18.74;46.20
71184;DHT22;58887;51.980;4.464;2023-04-15T09:28:23;18.50;45.28
71184;DHT22;58887;51.980;4.464;2023-04-15T09:30:51;18.49;46.33
71184;DHT22;58887;51.980;4.464;2023-04-15T09:33:17;19.07;44.52
71184;DHT22;58887;51.980;4.464;2023-04-15T09:35:56;19.22;44.70
71184;DHT22;58887;51.980;4.464;2023-04-15T09:38:22;19.08;43.39
71184;DHT22;58887;51.980;4.464;2023-04-15T09:40:49;19.54;44.18
71184;DHT22;58887;51.980;4.464;2023-04-15T09:43:15;19.69;43.28
71184;DHT22;58887;51.980;4.464;2023-04-15T09:45:53;19.99;42.51
71184;DHT22;58887;51.980;4.464;2023-04-15T09:48:20;19.93;41.69
71184;DHT22;58887;51.980;4.464;2023-04-15T09:50:50;20.33;40.73
71184;DHT22;58887;51.980;4.464;2023-04-15T09:53:19;20.76;38.58
71184;DHT22;58887;51.980;4.464;2023-04-15T09:55:57;20.79;41.18
71184;DHT22;58887;51.980;4.464;2023-04-15T09:58:26;20.49;40.92
71184;DHT22;58887;51.980;4.464;2023-04-15T10:00:53;20.86;40.05
71184;DHT22;58887;51.980;4.464;2023-04-15T10:03:21;21.23;39.39
71184;DHT22;58887;51.980;4.464;2023-04-15T10:05:53;21.03;38.27
71184;DHT22;58887;51.980;4.464;2023-04-15T10:08:22;21.32;39.75
71184;DHT22;58887;51.980;4.464;2023-04-15T10:10:50;21.35;39.52
71184;DHT22;58887;51.980;4.464;2023-04-15T10:13:18;21.27;38.73
71184;DHT22;58887;51.980;4.464;2023-04-15T10:15:56;21.61;38.61
71184;DHT22;58887;51.980;4.464;2023-04-15T10:18:25;21.56;36.09
71184;DHT22;58887;51.980;4.464;2023-04-15T10:20:51;21.50;36.77
71184;DHT22;58887;51.980;4.464;2023-04-15T10:23:19;21.75;37.58
71184;DHT22;58887;51.980;4.464;2023-04-15T10:25:45;22.14;37.39
71184;DHT22;58887;51.980;4.464;2023-04-15T10:28:20;22.16;35.58
71184;DHT22;58887;51.980;4.464;2023-04-15T10:30:47;21.50;37.90
71184;DHT22;58887;51.980;4.464;2023-04-15T10:33:16;21.68;37.04
71184;DHT22;58887;51.980;4.464;2023-04-15T10:35:43;21.73;37.60
71184;DHT22;58887;51.980;4.464;2023-04-15T10:38:35;21.85;38.00
71184;DHT22;58887;51.980;4.464;2023-04-15T10:41:20;21.93;37.53
71184;DHT22;58887;51.980;4.464;2023-04-15T10:44:17;22.18;35.42
71184;DHT22;58887;51.980;4.464;2023-04-15T10:46:44;22.15;35.55
71184;DHT22;58887;51.980;4.464;2023-04-15T10:49:12;22.24;36.11
71184;DHT22;58887;51.980;4.464;2023-04-15T10:51:44;22.63;37.22
71184;DHT22;58887;51.980;4.464;2023-04-15T10:54:31;22.96;34.78
71184;DHT22;58887;51.980;4.464;2023-04-15T10:59:59;22.91;33.95
71184;DHT22;58887;51.980;4.464;2023-04-15T11:05:13;21.87;36.79
71184;DHT22;58887;51.980;4.464;2023-04-15T11:12:51;22.99;36.56
71184;DHT22;58887;51.980;4.464;2023-04-15T11:15:30;23.73;36.98
71184;DHT22;58887;51.980;4.464;2023-04-15T11:20:32;23.80;35.30
71184;DHT22;58887;51.980;4.464;2023-04-15T11:22:58;23.54;34.86
71184;DHT22;58887;51.980;4.464;2023-04-15T11:25:25;22.56;38.56
71184;DHT22;58887;51.980;4.464;2023-04-15T11:27:55;22.86;35.95
71184;DHT22;58887;51.980;4.464;2023-04-15T11:30:26;23.54;36.32
71184;DHT22;58887;51.980;4.464;2023-04-15T11:32:58;23.85;34.81
71184;DHT22;58887;51.980;4.464;2023-04-15T11:35:24;23.06;36.14
71184;DHT22;58887;51.980;4.464;2023-04-15T11:37:52;23.07;36.36
71184;DHT22;58887;51.980;4.464;2023-04-15T11:40:27;23.69;35.14
71184;DHT22;58887;51.980;4.464;2023-04-15T11:45:33;24.29;34.53
71184;DHT22;58887;51.980;4.464;2023-04-15T11:48:10;25.12;32.49
71184;DHT22;58887;51.980;4.464;2023-04-15T11:50:37;24.51;32.94
71184;DHT22;58887;51.980;4.464;2023-04-15T11:53:08;24.68;32.93
71184;DHT22;58887;51.980;4.464;2023-04-15T11:55:45;24.96;34.94
71184;DHT22;58887;51.980;4.464;2023-04-15T11:58:15;25.02;31.65
71184;DHT22;58887;51.980;4.464;2023-04-15T12:00:49;23.25;34.91
71184;DHT22;58887;51.980;4.464;2023-04-15T12:13:54;22.22;36.65
71184;DHT22;58887;51.980;4.464;2023-04-15T12:16:21;21.97;38.32
71184;DHT22;58887;51.980;4.464;2023-04-15T12:18:55;22.24;39.38
71184;DHT22;58887;51.980;4.464;2023-04-15T12:21:33;22.59;35.80
71184;DHT22;58887;51.980;4.464;2023-04-15T12:24:02;21.02;38.73
71184;DHT22;58887;51.980;4.464;2023-04-15T12:26:33;20.12;41.03
71184;DHT22;58887;51.980;4.464;2023-04-15T12:29:06;19.47;41.87
71184;DHT22;58887;51.980;4.464;2023-04-15T12:31:36;19.90;43.61
71184;DHT22;58887;51.980;4.464;2023-04-15T12:34:05;20.96;41.79
71184;DHT22;58887;51.980;4.464;2023-04-15T12:36:31;20.13;42.67
71184;DHT22;58887;51.980;4.464;2023-04-15T12:39:04;18.60;46.25
71184;DHT22;58887;51.980;4.464;2023-04-15T12:41:32;18.81;47.67
71184;DHT22;58887;51.980;4.464;2023-04-15T12:43:58;18.55;46.62
71184;DHT22;58887;51.980;4.464;2023-04-15T12:46:25;18.25;48.07
71184;DHT22;58887;51.980;4.464;2023-04-15T12:48:52;17.64;49.33
71184;DHT22;58887;51.980;4.464;2023-04-15T12:51:18;17.53;48.88
71184;DHT22;58887;51.980;4.464;2023-04-15T12:53:43;16.89;51.73
71184;DHT22;58887;51.980;4.464;2023-04-15T12:56:11;16.73;52.52
71184;DHT22;58887;51.980;4.464;2023-04-15T12:58:50;18.96;49.41
71184;DHT22;58887;51.980;4.464;2023-04-15T13:01:16;19.93;46.21
71184;DHT22;58887;51.980;4.464;2023-04-15T13:03:41;20.54;43.91
71184;DHT22;58887;51.980;4.464;2023-04-15T13:06:07;20.44;44.02
71184;DHT22;58887;51.980;4.464;2023-04-15T13:08:32;20.49;42.07
71184;DHT22;58887;51.980;4.464;2023-04-15T13:10:58;20.69;43.42
71184;DHT22;58887;51.980;4.464;2023-04-15T13:13:24;21.61;41.18
71184;DHT22;58887;51.980;4.464;2023-04-15T13:15:49;20.85;41.33
71184;DHT22;58887;51.980;4.464;2023-04-15T13:18:15;21.27;41.90
71184;DHT22;58887;51.980;4.464;2023-04-15T13:20:42;21.65;43.10
71184;DHT22;58887;51.980;4.464;2023-04-15T13:23:07;22.26;41.43
71184;DHT22;58887;51.980;4.464;2023-04-15T13:25:33;22.91;39.69
71184;DHT22;58887;51.980;4.464;2023-04-15T13:27:59;22.82;39.47
71184;DHT22;58887;51.980;4.464;2023-04-15T13:30:26;22.57;39.27
71184;DHT22;58887;51.980;4.464;2023-04-15T13:32:52;22.26;40.30
71184;DHT22;58887;51.980;4.464;2023-04-15T13:35:19;22.90;39.47
71184;DHT22;58887;51.980;4.464;2023-04-15T13:37:46;22.83;39.54
71184;DHT22;58887;51.980;4.464;2023-04-15T13:40:12;22.57;39.76
71184;DHT22;58887;51.980;4.464;2023-04-15T13:42:38;22.51;40.22
71184;DHT22;58887;51.980;4.464;2023-04-15T13:45:04;21.51;41.13
71184;DHT22;58887;51.980;4.464;2023-04-15T13:47:29;21.74;39.85
71184;DHT22;58887;51.980;4.464;2023-04-15T13:49:55;22.36;39.81
71184;DHT22;58887;51.980;4.464;2023-04-15T13:52:21;22.33;39.13
71184;DHT22;58887;51.980;4.464;2023-04-15T13:54:49;23.08;38.16
71184;DHT22;58887;51.980;4.464;2023-04-15T13:57:14;22.84;38.63
71184;DHT22;58887;51.980;4.464;2023-04-15T13:59:40;23.25;39.11
71184;DHT22;58887;51.980;4.464;2023-04-15T14:02:05;23.08;37.69
71184;DHT22;58887;51.980;4.464;2023-04-15T14:04:32;22.67;38.78
71184;DHT22;58887;51.980;4.464;2023-04-15T14:06:57;22.89;37.72
71184;DHT22;58887;51.980;4.464;2023-04-15T14:09:23;22.63;37.37
71184;DHT22;58887;51.980;4.464;2023-04-15T14:11:51;22.43;39.33
71184;DHT22;58887;51.980;4.464;2023-04-15T14:14:18;21.93;39.22
71184;DHT22;58887;51.980;4.464;2023-04-15T14:16:43;21.58;40.16
71184;DHT22;58887;51.980;4.464;2023-04-15T14:19:09;22.02;39.99
71184;DHT22;58887;51.980;4.464;2023-04-15T14:21:34;21.94;41.18
71184;DHT22;58887;51.980;4.464;2023-04-15T14:24:00;22.31;39.69
71184;DHT22;58887;51.980;4.464;2023-04-15T14:26:25;22.24;40.09
71184;DHT22;58887;51.980;4.464;2023-04-15T14:28:51;22.12;39.49
71184;DHT22;58887;51.980;4.464;2023-04-15T14:31:18;23.10;39.16
71184;DHT22;58887;51.980;4.464;2023-04-15T14:33:44;23.25;39.96
71184;DHT22;58887;51.980;4.464;2023-04-15T14:36:11;21.90;40.53
71184;DHT22;58887;51.980;4.464;2023-04-15T14:38:38;21.74;40.86
71184;DHT22;58887;51.980;4.464;2023-04-15T14:41:04;22.55;40.02
71184;DHT22;58887;51.980;4.464;2023-04-15T14:43:30;21.88;40.56
71184;DHT22;58887;51.980;4.464;2023-04-15T14:45:55;22.21;41.37
71184;DHT22;58887;51.980;4.464;2023-04-15T14:48:22;21.68;41.54
71184;DHT22;58887;51.980;4.464;2023-04-15T14:50:48;21.90;40.91
71184;DHT22;58887;51.980;4.464;2023-04-15T14:53:15;21.73;42.00
71184;DHT22;58887;51.980;4.464;2023-04-15T14:55:41;21.71;41.85
71184;DHT22;58887;51.980;4.464;2023-04-15T14:58:08;22.42;40.65
71184;DHT22;58887;51.980;4.464;2023-04-15T15:00:35;22.22;40.48
71184;DHT22;58887;51.980;4.464;2023-04-15T15:03:05;21.51;41.50
71184;DHT22;58887;51.980;4.464;2023-04-15T15:05:38;21.42;43.18
71184;DHT22;58887;51.980;4.464;2023-04-15T15:08:05;21.37;41.86
71184;DHT22;58887;51.980;4.464;2023-04-15T15:10:31;21.22;42.48
71184;DHT22;58887;51.980;4.464;2023-04-15T15:12:59;20.88;42.92
71184;DHT22;58887;51.980;4.464;2023-04-15T15:15:25;20.63;43.80
71184;DHT22;58887;51.980;4.464;2023-04-15T15:17:50;19.75;45.02
71184;DHT22;58887;51.980;4.464;2023-04-15T15:20:25;19.96;45.01
71184;DHT22;58887;51.980;4.464;2023-04-15T15:22:51;20.49;44.29
71184;DHT22;58887;51.980;4.464;2023-04-15T15:25:20;20.69;43.08
71184;DHT22;58887;51.980;4.464;2023-04-15T15:27:45;20.20;45.44
71184;DHT22;58887;51.980;4.464;2023-04-15T15:30:12;20.61;43.75
71184;DHT22;58887;51.980;4.464;2023-04-15T15:32:41;20.67;43.31
71184;DHT22;58887;51.980;4.464;2023-04-15T15:35:07;20.52;44.00
71184;DHT22;58887;51.980;4.464;2023-04-15T15:37:40;20.09;44.27
71184;DHT22;58887;51.980;4.464;2023-04-15T15:40:07;19.27;45.61
71184;DHT22;58887;51.980;4.464;2023-04-15T15:42:50;19.69;45.86
71184;DHT22;58887;51.980;4.464;2023-04-15T15:45:17;20.17;44.73
71184;DHT22;58887;51.980;4.464;2023-04-15T15:47:48;20.00;44.29
71184;DHT22;58887;51.980;4.464;2023-04-15T15:50:13;20.18;43.14
71184;DHT22;58887;51.980;4.464;2023-04-15T15:52:39;19.21;45.29
71184;DHT22;58887;51.980;4.464;2023-04-15T15:55:05;19.32;45.23
71184;DHT22;58887;51.980;4.464;2023-04-15T15:57:30;19.99;43.69
71184;DHT22;58887;51.980;4.464;2023-04-15T16:00:02;19.85;44.54
71184;DHT22;58887;51.980;4.464;2023-04-15T16:02:29;19.87;44.88
71184;DHT22;58887;51.980;4.464;2023-04-15T16:04:57;19.75;45.00